Decoded Metar for KDVL (DEVILS LAKE in ND, USA) (IATA:DVL) | Meteo·Mobile Aviation Weather
aviador You're here:

KDVL Decoded Metar

DEVILS LAKE in ND, USA
Report Time2019-01-17 23:56:00
UTC Time2019-01-18 00:25:44
Flight Rules vfr VFR
Wind010° at 04 kt
W.Decomp.*RWY 03: 3.6 kt HW 1.8 kt LCW
RWY 31: 2.4 kt HW 3.2 kt RCW
W.Rank010° ranks 17
Current wind is below 010° avg. (10.7)
Visibility9999 m
Phenomena:N/A
Clouds:Few 075 Hf
Expected CloudBase > 1,200 ft AGL from Temp-Dew spread
CeilingNone
Temp-19°C (ISA -31)
Dew Point-22°C (77% RH)
AAT-24.1°C
QNH1022 hPa
Density Alt-2,795 ft
Elevation1,453 ft
Report Wrong Elevation
Raw Report
KDVL 172356Z AUTO 01004KT 10SM FEW075 M19/M22 A3018 RMK AO2 SLP279
60000 T11941217 11150 21200 50009 FZRANO=

Extra information for KDVL:More info

Metar Taf Metar & Taf Last 4 Metars F.Rules Stats Wind Profile Meteogram Temp Stats Airport Information Weather charts Add Link Nearby VenuesMetar ALERT Operation Metar Decoded Social comments

AIRNAV info for KDVL